Time;durP1;ratioP1;P1;durP2;ratioP2;P2;SDS_P1;SDS_P2;PMS_P1;PMS_P2;Temp;Humidity;BMP_temperature;BMP_pressure;BME280_temperature;BME280_humidity;BME280_pressure;Samples;Min_cycle;Max_cycle;Signal;HPM_P1;HPM_P2
2022/03/05 00:00:43;;;;;;;;;;;;;;;;;;5144056;27;20052;-75
2022/03/05 00:03:08;;;;;;;;;;;;;;;;;;5124257;27;19908;-74
2022/03/05 00:05:34;;;;;;;;;;;;;;;;;;5142875;27;19922;-74
2022/03/05 00:08:00;;;;;;;;;;;;;;;;;;5142577;27;19960;-74
2022/03/05 00:10:26;;;;;;;;;;;;;;;;;;5142105;27;19953;-76
2022/03/05 00:12:51;;;;;;;;;;;;;;;;;;5107173;27;19914;-74
2022/03/05 00:15:17;;;;;;;;;;;;;;;;;;5142220;27;20236;-77
2022/03/05 00:17:43;;;;;;;;;;;;;;;;;;5123688;27;19907;-73
2022/03/05 00:20:08;;;;;;;;;;;;;;;;;;5142286;27;20301;-74
2022/03/05 00:22:34;;;;;;;;;;;;;;;;;;5142372;27;19915;-74
2022/03/05 00:25:00;;;;;;;;;;;;;;;;;;5142273;27;19960;-75
2022/03/05 00:27:25;;;;;;;;;;;;;;;;;;5123947;27;20297;-75
2022/03/05 00:29:52;;;;;;;;;;;;;;;;;;5124155;27;19914;-75
2022/03/05 00:32:18;;;;;;;;;;;;;;;;;;5142208;27;19911;-73
2022/03/05 00:34:44;;;;;;;;;;;;;;;;;;5142273;27;19915;-77
2022/03/05 00:37:10;;;;;;;;;;;;;;;;;;5141520;27;19986;-74
2022/03/05 00:39:35;;;;;;;;;;;;;;;;;;5141910;27;19920;-74
2022/03/05 00:42:01;;;;;;;;;;;;;;;;;;5142232;27;19907;-76
2022/03/05 00:44:28;;;;;;;;;;;;;;;;;;5142224;27;19912;-76
2022/03/05 00:46:54;;;;;;;;;;;;;;;;;;5123718;27;19907;-74
2022/03/05 00:49:19;;;;;;;;;;;;;;;;;;5141996;27;19914;-76
2022/03/05 00:51:45;;;;;;;;;;;;;;;;;;5142054;27;19943;-72
2022/03/05 00:54:11;;;;;;;;;;;;;;;;;;5141933;27;20198;-73
2022/03/05 00:56:37;;;;;;;;;;;;;;;;;;5123205;27;19930;-75
2022/03/05 00:59:02;;;;;;;;;;;;;;;;;;5141031;27;19922;-73
2022/03/05 01:01:28;;;;;;;;;;;;;;;;;;5122782;27;19908;-75
2022/03/05 01:03:54;;;;;;;;;;;;;;;;;;5141667;27;20305;-73
2022/03/05 01:06:20;;;;;;;;;;;;;;;;;;5123539;27;19923;-74
2022/03/05 01:08:45;;;;;;;;;;;;;;;;;;5140949;27;19908;-76
2022/03/05 01:11:15;;;;;;;;;;;;;;;;;;5122876;27;19990;-75
2022/03/05 01:13:40;;;;;;;;;;;;;;;;;;5141452;27;19960;-76
2022/03/05 01:16:06;;;;;;;;;;;;;;;;;;5142886;27;19908;-75
2022/03/05 01:18:32;;;;;;;;;;;;;;;;;;5141092;27;19926;-74
2022/03/05 01:20:58;;;;;;;;;;;;;;;;;;5141997;27;19934;-75
2022/03/05 01:23:24;;;;;;;;;;;;;;;;;;5123889;27;19907;-74
2022/03/05 01:25:49;;;;;;;;;;;;;;;;;;5123112;27;19932;-74
2022/03/05 01:28:15;;;;;;;;;;;;;;;;;;5141483;27;19908;-77
2022/03/05 01:30:41;;;;;;;;;;;;;;;;;;5140434;27;20270;-75
2022/03/05 01:33:06;;;;;;;;;;;;;;;;;;5140487;27;19915;-76
2022/03/05 01:35:32;;;;;;;;;;;;;;;;;;5140727;27;19935;-76
2022/03/05 01:37:58;;;;;;;;;;;;;;;;;;5122292;27;19907;-76
2022/03/05 01:40:23;;;;;;;;;;;;;;;;;;5140429;27;19916;-75
2022/03/05 01:42:49;;;;;;;;;;;;;;;;;;5122539;27;19908;-74
2022/03/05 01:45:15;;;;;;;;;;;;;;;;;;5140775;27;19907;-76
2022/03/05 01:47:41;;;;;;;;;;;;;;;;;;5139750;27;19907;-77
2022/03/05 01:50:06;;;;;;;;;;;;;;;;;;5140536;27;20198;-76
2022/03/05 01:52:32;;;;;;;;;;;;;;;;;;5140185;27;20214;-75
2022/03/05 01:54:58;;;;;;;;;;;;;;;;;;5141012;27;19911;-73
2022/03/05 01:57:23;;;;;;;;;;;;;;;;;;5140400;27;19907;-74
2022/03/05 01:59:49;;;;;;;;;;;;;;;;;;5140122;27;19922;-75
2022/03/05 02:02:15;;;;;;;;;;;;;;;;;;5140434;27;20305;-74
2022/03/05 02:04:41;;;;;;;;;;;;;;;;;;5139977;27;20324;-73
2022/03/05 02:07:06;;;;;;;;;;;;;;;;;;5140764;27;19923;-74
2022/03/05 02:09:32;;;;;;;;;;;;;;;;;;5140640;27;19911;-73
2022/03/05 02:11:58;;;;;;;;;;;;;;;;;;5140519;27;20026;-73
2022/03/05 02:14:24;;;;;;;;;;;;;;;;;;5139755;27;19990;-73
2022/03/05 02:16:50;;;;;;;;;;;;;;;;;;5139079;27;20305;-72
2022/03/05 02:19:16;;;;;;;;;;;;;;;;;;5138697;27;19922;-74
2022/03/05 02:21:41;;;;;;;;;;;;;;;;;;5139632;27;19915;-74
2022/03/05 02:24:07;;;;;;;;;;;;;;;;;;5104115;27;19968;-74
2022/03/05 02:26:33;;;;;;;;;;;;;;;;;;5139834;27;19911;-74
2022/03/05 02:28:58;;;;;;;;;;;;;;;;;;5139541;27;19907;-73
2022/03/05 02:31:24;;;;;;;;;;;;;;;;;;5139726;27;19930;-74
2022/03/05 02:33:55;;;;;;;;;;;;;;;;;;5140796;27;19914;-74
2022/03/05 02:36:21;;;;;;;;;;;;;;;;;;5139479;27;19907;-74
2022/03/05 02:38:47;;;;;;;;;;;;;;;;;;5104110;27;19971;-74
2022/03/05 02:41:12;;;;;;;;;;;;;;;;;;5120411;27;19938;-76
2022/03/05 02:43:38;;;;;;;;;;;;;;;;;;5121201;27;19990;-74
2022/03/05 02:46:04;;;;;;;;;;;;;;;;;;5121856;27;19971;-77
2022/03/05 02:48:30;;;;;;;;;;;;;;;;;;5120909;27;19931;-74
2022/03/05 02:50:55;;;;;;;;;;;;;;;;;;5121527;27;19908;-73
2022/03/05 02:53:21;;;;;;;;;;;;;;;;;;5138315;27;19907;-72
2022/03/05 02:55:47;;;;;;;;;;;;;;;;;;5137977;27;20217;-74
2022/03/05 02:58:13;;;;;;;;;;;;;;;;;;5137095;27;19907;-73
2022/03/05 03:00:38;;;;;;;;;;;;;;;;;;5138272;27;19908;-73
2022/03/05 03:03:04;;;;;;;;;;;;;;;;;;5119123;27;19914;-74
2022/03/05 03:05:30;;;;;;;;;;;;;;;;;;5119718;27;19969;-74
2022/03/05 03:07:56;;;;;;;;;;;;;;;;;;5138277;27;19942;-74
2022/03/05 03:10:21;;;;;;;;;;;;;;;;;;5137763;27;19907;-74
2022/03/05 03:12:47;;;;;;;;;;;;;;;;;;5137065;27;19915;-73
2022/03/05 03:15:13;;;;;;;;;;;;;;;;;;5138171;27;19990;-72
2022/03/05 03:17:39;;;;;;;;;;;;;;;;;;5121080;27;20287;-74
2022/03/05 03:20:05;;;;;;;;;;;;;;;;;;5118914;27;19923;-73
2022/03/05 03:22:31;;;;;;;;;;;;;;;;;;5117847;27;19908;-75
2022/03/05 03:24:57;;;;;;;;;;;;;;;;;;5137318;27;19994;-74
2022/03/05 03:27:22;;;;;;;;;;;;;;;;;;5138267;27;19907;-73
2022/03/05 03:29:48;;;;;;;;;;;;;;;;;;5138505;27;19915;-74
2022/03/05 03:32:14;;;;;;;;;;;;;;;;;;5120410;27;20009;-74
2022/03/05 03:34:40;;;;;;;;;;;;;;;;;;5138854;27;19908;-74
2022/03/05 03:37:06;;;;;;;;;;;;;;;;;;5120336;27;20363;-75
2022/03/05 03:39:31;;;;;;;;;;;;;;;;;;5138192;27;19916;-75
2022/03/05 03:41:57;;;;;;;;;;;;;;;;;;5140772;27;19912;-73
2022/03/05 03:44:23;;;;;;;;;;;;;;;;;;5139985;28;20221;-74
2022/03/05 03:46:49;;;;;;;;;;;;;;;;;;5121968;28;19988;-75
2022/03/05 03:49:15;;;;;;;;;;;;;;;;;;5139332;28;19907;-73
2022/03/05 03:51:41;;;;;;;;;;;;;;;;;;5120621;28;20313;-75
2022/03/05 03:54:06;;;;;;;;;;;;;;;;;;5137661;28;19908;-76
2022/03/05 03:56:32;;;;;;;;;;;;;;;;;;5137953;28;19911;-75
2022/03/05 03:58:58;;;;;;;;;;;;;;;;;;5136539;28;19919;-74
2022/03/05 04:01:24;;;;;;;;;;;;;;;;;;5122351;28;19907;-74
2022/03/05 04:03:49;;;;;;;;;;;;;;;;;;5139618;28;19907;-74
2022/03/05 04:06:15;;;;;;;;;;;;;;;;;;5140831;28;20289;-74
2022/03/05 04:08:44;;;;;;;;;;;;;;;;;;5120534;28;20002;-74
2022/03/05 04:11:10;;;;;;;;;;;;;;;;;;5119773;28;19907;-74
2022/03/05 04:13:36;;;;;;;;;;;;;;;;;;5120337;28;19918;-75
2022/03/05 04:16:02;;;;;;;;;;;;;;;;;;5120523;28;19908;-73
2022/03/05 04:18:30;;;;;;;;;;;;;;;;;;5106985;28;19907;-74
2022/03/05 04:20:56;;;;;;;;;;;;;;;;;;5121698;28;20006;-75
2022/03/05 04:23:21;;;;;;;;;;;;;;;;;;5118831;28;19993;-75
2022/03/05 04:25:47;;;;;;;;;;;;;;;;;;5136426;28;19983;-75
2022/03/05 04:28:13;;;;;;;;;;;;;;;;;;5138224;28;19930;-77
2022/03/05 04:30:39;;;;;;;;;;;;;;;;;;5123109;28;19977;-73
2022/03/05 04:33:04;;;;;;;;;;;;;;;;;;5139574;28;20003;-73
2022/03/05 04:35:30;;;;;;;;;;;;;;;;;;5122356;28;20266;-75
2022/03/05 04:37:56;;;;;;;;;;;;;;;;;;5120294;28;19915;-74
2022/03/05 04:40:22;;;;;;;;;;;;;;;;;;5136782;28;20241;-74
2022/03/05 04:42:48;;;;;;;;;;;;;;;;;;5121128;27;19918;-74
2022/03/05 04:45:14;;;;;;;;;;;;;;;;;;5141461;27;19907;-74
2022/03/05 04:47:41;;;;;;;;;;;;;;;;;;5108725;27;19907;-76
2022/03/05 04:50:08;;;;;;;;;;;;;;;;;;5143123;27;19908;-74
2022/03/05 04:52:34;;;;;;;;;;;;;;;;;;5125217;27;20162;-74
2022/03/05 04:55:00;;;;;;;;;;;;;;;;;;5143209;27;19908;-74
2022/03/05 04:57:26;;;;;;;;;;;;;;;;;;5125117;27;19914;-73
2022/03/05 04:59:52;;;;;;;;;;;;;;;;;;5122329;27;19983;-74
2022/03/05 05:02:17;;;;;;;;;;;;;;;;;;5144699;27;19911;-74
2022/03/05 05:04:43;;;;;;;;;;;;;;;;;;5143049;27;20012;-75
2022/03/05 05:07:09;;;;;;;;;;;;;;;;;;5127439;27;19923;-73
2022/03/05 05:09:35;;;;;;;;;;;;;;;;;;5147333;27;19907;-73
2022/03/05 05:12:01;;;;;;;;;;;;;;;;;;5109134;27;19907;-76
2022/03/05 05:14:27;;;;;;;;;;;;;;;;;;5125762;27;19908;-77
2022/03/05 05:16:54;;;;;;;;;;;;;;;;;;5123900;27;20344;-76
2022/03/05 05:19:29;;;;;;;;;;;;;;;;;;5108751;27;19915;-74
2022/03/05 05:21:55;;;;;;;;;;;;;;;;;;5123786;27;19907;-75
2022/03/05 05:24:21;;;;;;;;;;;;;;;;;;5126454;27;19907;-74
2022/03/05 05:26:47;;;;;;;;;;;;;;;;;;5111072;27;20304;-75
2022/03/05 05:29:13;;;;;;;;;;;;;;;;;;5143347;27;19908;-77
2022/03/05 05:31:39;;;;;;;;;;;;;;;;;;5127147;27;19967;-74
2022/03/05 05:34:05;;;;;;;;;;;;;;;;;;5127609;27;19929;-74
2022/03/05 05:36:31;;;;;;;;;;;;;;;;;;5127411;27;19960;-75
2022/03/05 05:38:56;;;;;;;;;;;;;;;;;;5127940;27;19954;-74
2022/03/05 05:41:22;;;;;;;;;;;;;;;;;;5109247;27;19952;-73
2022/03/05 05:43:48;;;;;;;;;;;;;;;;;;5144306;27;19971;-73
2022/03/05 05:46:14;;;;;;;;;;;;;;;;;;5124775;27;19952;-73
2022/03/05 05:48:40;;;;;;;;;;;;;;;;;;5107728;27;20392;-74
2022/03/05 05:51:05;;;;;;;;;;;;;;;;;;5121064;27;19914;-77
2022/03/05 05:53:31;;;;;;;;;;;;;;;;;;5137432;27;19942;-74
2022/03/05 05:55:59;;;;;;;;;;;;;;;;;;5120416;27;19991;-75
2022/03/05 05:58:25;;;;;;;;;;;;;;;;;;5119519;27;19915;-76
2022/03/05 06:00:51;;;;;;;;;;;;;;;;;;5137742;27;19907;-74
2022/03/05 06:03:16;;;;;;;;;;;;;;;;;;5119567;27;19908;-73
2022/03/05 06:05:42;;;;;;;;;;;;;;;;;;5118935;27;20002;-74
2022/03/05 06:08:08;;;;;;;;;;;;;;;;;;5137916;27;19915;-73
2022/03/05 06:10:34;;;;;;;;;;;;;;;;;;5138257;27;19927;-75
2022/03/05 06:12:59;;;;;;;;;;;;;;;;;;5119048;27;19986;-73
2022/03/05 06:15:25;;;;;;;;;;;;;;;;;;5137630;27;19908;-72
2022/03/05 06:17:54;;;;;;;;;;;;;;;;;;5137362;27;19908;-73
2022/03/05 06:20:20;;;;;;;;;;;;;;;;;;5120096;27;19981;-74
2022/03/05 06:22:46;;;;;;;;;;;;;;;;;;5138685;27;19915;-74
2022/03/05 06:25:11;;;;;;;;;;;;;;;;;;5138851;27;19908;-74
2022/03/05 06:27:37;;;;;;;;;;;;;;;;;;5138873;27;20326;-75
2022/03/05 06:30:03;;;;;;;;;;;;;;;;;;5138930;27;19907;-74
2022/03/05 06:32:29;;;;;;;;;;;;;;;;;;5139021;27;19961;-74
2022/03/05 06:34:55;;;;;;;;;;;;;;;;;;5139662;27;19907;-73
2022/03/05 06:37:21;;;;;;;;;;;;;;;;;;5121446;27;20278;-74
2022/03/05 06:39:46;;;;;;;;;;;;;;;;;;5146018;27;20010;-75
2022/03/05 06:42:12;;;;;;;;;;;;;;;;;;5119973;27;19907;-73
2022/03/05 06:44:38;;;;;;;;;;;;;;;;;;5139261;27;19911;-73
2022/03/05 06:47:03;;;;;;;;;;;;;;;;;;5139103;27;20298;-73
2022/03/05 06:49:29;;;;;;;;;;;;;;;;;;5140315;27;19961;-74
2022/03/05 06:51:55;;;;;;;;;;;;;;;;;;5139312;27;19907;-73
2022/03/05 06:54:20;;;;;;;;;;;;;;;;;;5120510;27;19954;-73
2022/03/05 06:56:46;;;;;;;;;;;;;;;;;;5121095;27;19942;-73
2022/03/05 06:59:12;;;;;;;;;;;;;;;;;;5138386;27;19915;-72
2022/03/05 07:01:38;;;;;;;;;;;;;;;;;;5138863;27;20361;-73
2022/03/05 07:04:03;;;;;;;;;;;;;;;;;;5120244;27;19908;-73
2022/03/05 07:06:29;;;;;;;;;;;;;;;;;;5119924;27;19916;-72
2022/03/05 07:08:55;;;;;;;;;;;;;;;;;;5138055;27;19908;-73
2022/03/05 07:11:21;;;;;;;;;;;;;;;;;;5119953;27;19908;-73
2022/03/05 07:13:47;;;;;;;;;;;;;;;;;;5121268;27;19930;-73
2022/03/05 07:16:12;;;;;;;;;;;;;;;;;;5118628;27;20162;-73
2022/03/05 07:18:40;;;;;;;;;;;;;;;;;;5120973;27;19922;-72
2022/03/05 07:21:05;;;;;;;;;;;;;;;;;;5140239;27;19908;-72
2022/03/05 07:23:31;;;;;;;;;;;;;;;;;;5120809;27;19907;-73
2022/03/05 07:25:57;;;;;;;;;;;;;;;;;;5138302;27;19908;-73
2022/03/05 07:28:25;;;;;;;;;;;;;;;;;;5139539;27;19968;-73
2022/03/05 07:30:52;;;;;;;;;;;;;;;;;;5141161;27;19908;-73
2022/03/05 07:33:18;;;;;;;;;;;;;;;;;;5141172;27;19911;-73
2022/03/05 07:35:44;;;;;;;;;;;;;;;;;;5140529;27;19929;-74
2022/03/05 07:38:09;;;;;;;;;;;;;;;;;;5138950;27;19908;-73
2022/03/05 07:40:35;;;;;;;;;;;;;;;;;;5105878;28;20017;-74
2022/03/05 07:43:01;;;;;;;;;;;;;;;;;;5138583;27;19946;-74
2022/03/05 07:45:27;;;;;;;;;;;;;;;;;;5120334;28;19908;-74
2022/03/05 07:47:52;;;;;;;;;;;;;;;;;;5120053;28;19915;-73
2022/03/05 07:50:18;;;;;;;;;;;;;;;;;;5139811;28;20253;-73
2022/03/05 07:52:44;;;;;;;;;;;;;;;;;;5138067;28;19919;-74
2022/03/05 07:55:10;;;;;;;;;;;;;;;;;;5123481;28;19907;-73
2022/03/05 07:57:35;;;;;;;;;;;;;;;;;;5138712;28;19912;-73
2022/03/05 08:00:01;;;;;;;;;;;;;;;;;;5137472;28;19958;-72
2022/03/05 08:02:27;;;;;;;;;;;;;;;;;;5140077;28;19914;-74
2022/03/05 08:04:53;;;;;;;;;;;;;;;;;;5103374;28;19951;-72
2022/03/05 08:07:19;;;;;;;;;;;;;;;;;;5138312;28;19911;-73
2022/03/05 08:09:45;;;;;;;;;;;;;;;;;;5122552;28;19907;-73
2022/03/05 08:12:11;;;;;;;;;;;;;;;;;;5119564;28;20289;-73
2022/03/05 08:14:37;;;;;;;;;;;;;;;;;;5138030;28;19911;-72
2022/03/05 08:17:02;;;;;;;;;;;;;;;;;;5119716;28;19907;-73
2022/03/05 08:19:31;;;;;;;;;;;;;;;;;;5123506;27;20209;-73
2022/03/05 08:21:57;;;;;;;;;;;;;;;;;;5142941;27;20310;-73
2022/03/05 08:24:22;;;;;;;;;;;;;;;;;;5125499;27;19907;-72
2022/03/05 08:26:48;;;;;;;;;;;;;;;;;;5143003;27;19953;-73
2022/03/05 08:29:14;;;;;;;;;;;;;;;;;;5140947;27;19990;-73
2022/03/05 08:31:40;;;;;;;;;;;;;;;;;;5123397;27;19907;-72
2022/03/05 08:34:06;;;;;;;;;;;;;;;;;;5141633;27;19999;-74
2022/03/05 08:36:32;;;;;;;;;;;;;;;;;;5123146;27;19907;-72
2022/03/05 08:38:58;;;;;;;;;;;;;;;;;;5141592;27;19919;-73
2022/03/05 08:41:28;;;;;;;;;;;;;;;;;;5141706;27;19915;-72
2022/03/05 08:43:53;;;;;;;;;;;;;;;;;;5141608;27;19908;-72
2022/03/05 08:46:19;;;;;;;;;;;;;;;;;;5123136;27;20198;-72
2022/03/05 08:48:45;;;;;;;;;;;;;;;;;;5141764;27;19943;-72
2022/03/05 08:51:11;;;;;;;;;;;;;;;;;;5123552;27;19976;-73
2022/03/05 08:53:37;;;;;;;;;;;;;;;;;;5142119;27;19908;-73
2022/03/05 08:56:02;;;;;;;;;;;;;;;;;;5142668;27;20297;-73
2022/03/05 08:58:28;;;;;;;;;;;;;;;;;;5122963;27;19919;-73
2022/03/05 09:00:54;;;;;;;;;;;;;;;;;;5123491;27;20005;-73
2022/03/05 09:03:20;;;;;;;;;;;;;;;;;;5123206;27;19914;-73
2022/03/05 09:05:46;;;;;;;;;;;;;;;;;;5143547;27;20342;-72
2022/03/05 09:08:11;;;;;;;;;;;;;;;;;;5123205;27;19991;-72
2022/03/05 09:10:37;;;;;;;;;;;;;;;;;;5140657;27;19907;-72
2022/03/05 09:13:03;;;;;;;;;;;;;;;;;;5122833;27;19915;-72
2022/03/05 09:15:29;;;;;;;;;;;;;;;;;;5141083;27;19907;-72
2022/03/05 09:17:54;;;;;;;;;;;;;;;;;;5140577;27;19907;-72
2022/03/05 09:20:20;;;;;;;;;;;;;;;;;;5121222;27;20017;-72
2022/03/05 09:22:46;;;;;;;;;;;;;;;;;;5141044;27;19994;-73
2022/03/05 09:25:11;;;;;;;;;;;;;;;;;;5141196;27;19914;-72
2022/03/05 09:27:37;;;;;;;;;;;;;;;;;;5141057;27;19907;-73
2022/03/05 09:30:03;;;;;;;;;;;;;;;;;;5122250;27;19908;-72
2022/03/05 09:32:28;;;;;;;;;;;;;;;;;;5141157;27;19911;-72
2022/03/05 09:34:59;;;;;;;;;;;;;;;;;;5122898;27;19908;-72
2022/03/05 09:37:24;;;;;;;;;;;;;;;;;;5122315;27;19952;-72
2022/03/05 09:39:50;;;;;;;;;;;;;;;;;;5140173;27;20018;-72
2022/03/05 09:42:16;;;;;;;;;;;;;;;;;;5140289;27;19907;-72
2022/03/05 09:44:42;;;;;;;;;;;;;;;;;;5140806;27;19914;-72
2022/03/05 09:47:08;;;;;;;;;;;;;;;;;;5140544;27;19964;-73
2022/03/05 09:49:34;;;;;;;;;;;;;;;;;;5140439;27;19915;-72
2022/03/05 09:51:59;;;;;;;;;;;;;;;;;;5139927;27;19908;-72
2022/03/05 09:54:28;;;;;;;;;;;;;;;;;;5139847;27;19957;-73
2022/03/05 09:56:53;;;;;;;;;;;;;;;;;;5140237;27;19986;-72
2022/03/05 09:59:19;;;;;;;;;;;;;;;;;;5140074;27;20218;-72
2022/03/05 10:01:45;;;;;;;;;;;;;;;;;;5121563;27;19943;-72
2022/03/05 10:04:11;;;;;;;;;;;;;;;;;;5140293;27;19907;-72
2022/03/05 10:06:36;;;;;;;;;;;;;;;;;;5139975;27;20320;-72
2022/03/05 10:09:02;;;;;;;;;;;;;;;;;;5139886;27;19913;-72
2022/03/05 10:11:28;;;;;;;;;;;;;;;;;;5121670;27;19978;-72
2022/03/05 10:13:53;;;;;;;;;;;;;;;;;;5139658;27;20277;-72
2022/03/05 10:16:19;;;;;;;;;;;;;;;;;;5140037;27;19951;-72
2022/03/05 10:18:45;;;;;;;;;;;;;;;;;;5139221;27;19926;-72
2022/03/05 10:21:10;;;;;;;;;;;;;;;;;;5121106;27;19907;-72
2022/03/05 10:23:36;;;;;;;;;;;;;;;;;;5121446;27;19907;-72
2022/03/05 10:26:03;;;;;;;;;;;;;;;;;;5139228;27;20329;-72
2022/03/05 10:28:29;;;;;;;;;;;;;;;;;;5139766;27;19998;-72
2022/03/05 10:30:54;;;;;;;;;;;;;;;;;;5139612;27;20301;-71
2022/03/05 10:33:20;;;;;;;;;;;;;;;;;;5139445;27;19907;-72
2022/03/05 10:35:46;;;;;;;;;;;;;;;;;;5138979;27;19915;-73
2022/03/05 10:38:12;;;;;;;;;;;;;;;;;;5139352;27;19908;-73
2022/03/05 10:40:38;;;;;;;;;;;;;;;;;;5138720;27;19919;-72
2022/03/05 10:43:03;;;;;;;;;;;;;;;;;;5139327;27;20229;-72
2022/03/05 10:45:29;;;;;;;;;;;;;;;;;;5138827;27;19947;-72
2022/03/05 10:47:55;;;;;;;;;;;;;;;;;;5139441;27;19907;-71
2022/03/05 10:50:20;;;;;;;;;;;;;;;;;;5139761;27;19994;-72
2022/03/05 10:52:46;;;;;;;;;;;;;;;;;;5138821;27;19907;-72
2022/03/05 10:55:12;;;;;;;;;;;;;;;;;;5121707;27;19936;-73
2022/03/05 10:57:37;;;;;;;;;;;;;;;;;;5120398;27;19916;-73
2022/03/05 11:00:03;;;;;;;;;;;;;;;;;;5121364;27;19922;-72
2022/03/05 11:02:29;;;;;;;;;;;;;;;;;;5121059;27;19914;-74
2022/03/05 11:04:56;;;;;;;;;;;;;;;;;;5139453;27;19911;-72
2022/03/05 11:07:23;;;;;;;;;;;;;;;;;;5139142;27;19915;-72
2022/03/05 11:09:49;;;;;;;;;;;;;;;;;;5121892;27;19911;-72
2022/03/05 11:12:15;;;;;;;;;;;;;;;;;;5139233;27;19908;-72
2022/03/05 11:14:41;;;;;;;;;;;;;;;;;;5139198;27;19907;-73
2022/03/05 11:17:07;;;;;;;;;;;;;;;;;;5138554;27;20311;-72
2022/03/05 11:19:32;;;;;;;;;;;;;;;;;;5138582;27;19925;-72
2022/03/05 11:21:58;;;;;;;;;;;;;;;;;;5138337;27;19934;-72
2022/03/05 11:24:24;;;;;;;;;;;;;;;;;;5138967;27;19953;-71
2022/03/05 11:26:50;;;;;;;;;;;;;;;;;;5120105;27;19952;-74
2022/03/05 11:29:15;;;;;;;;;;;;;;;;;;5120648;27;19907;-73
2022/03/05 11:31:41;;;;;;;;;;;;;;;;;;5142399;27;20293;-71
2022/03/05 11:34:07;;;;;;;;;;;;;;;;;;5108467;27;19907;-72
2022/03/05 11:36:33;;;;;;;;;;;;;;;;;;5142815;27;19911;-71
2022/03/05 11:38:58;;;;;;;;;;;;;;;;;;5107132;27;19965;-74
2022/03/05 11:41:27;;;;;;;;;;;;;;;;;;5141802;27;19915;-72
2022/03/05 11:43:53;;;;;;;;;;;;;;;;;;5123919;28;19994;-72
2022/03/05 11:46:18;;;;;;;;;;;;;;;;;;5124744;28;19961;-72
2022/03/05 11:48:44;;;;;;;;;;;;;;;;;;5106961;28;19968;-72
2022/03/05 11:51:12;;;;;;;;;;;;;;;;;;5120151;27;19930;-72
2022/03/05 11:53:37;;;;;;;;;;;;;;;;;;5142638;27;19908;-73
2022/03/05 11:56:03;;;;;;;;;;;;;;;;;;5142683;27;19907;-72
2022/03/05 11:58:29;;;;;;;;;;;;;;;;;;5124556;27;19998;-71
2022/03/05 12:00:57;;;;;;;;;;;;;;;;;;5142778;27;19960;-72
2022/03/05 12:03:22;;;;;;;;;;;;;;;;;;5143044;27;19908;-73
2022/03/05 12:05:48;;;;;;;;;;;;;;;;;;5144209;27;19926;-72
2022/03/05 12:08:14;;;;;;;;;;;;;;;;;;5142864;27;19914;-72
2022/03/05 12:10:40;;;;;;;;;;;;;;;;;;5141963;27;20233;-73
2022/03/05 12:13:05;;;;;;;;;;;;;;;;;;5142585;27;19908;-72
2022/03/05 12:15:31;;;;;;;;;;;;;;;;;;5141870;27;20296;-72
2022/03/05 12:17:57;;;;;;;;;;;;;;;;;;5124217;27;19908;-73
2022/03/05 12:20:23;;;;;;;;;;;;;;;;;;5123947;27;19915;-72
2022/03/05 12:22:49;;;;;;;;;;;;;;;;;;5142134;27;19947;-72
2022/03/05 12:25:14;;;;;;;;;;;;;;;;;;5142481;27;19969;-72
2022/03/05 12:27:40;;;;;;;;;;;;;;;;;;5123419;27;19908;-72
2022/03/05 12:30:06;;;;;;;;;;;;;;;;;;5141602;27;19908;-72
2022/03/05 12:32:32;;;;;;;;;;;;;;;;;;5123957;27;19907;-72
2022/03/05 12:34:57;;;;;;;;;;;;;;;;;;5142178;27;19908;-72
2022/03/05 12:37:23;;;;;;;;;;;;;;;;;;5141496;27;19952;-72
2022/03/05 12:39:49;;;;;;;;;;;;;;;;;;5141989;27;20289;-73
2022/03/05 12:42:14;;;;;;;;;;;;;;;;;;5123454;27;19943;-72
2022/03/05 12:44:40;;;;;;;;;;;;;;;;;;5123139;27;20305;-72
2022/03/05 12:47:06;;;;;;;;;;;;;;;;;;5141322;27;19907;-73
2022/03/05 12:49:31;;;;;;;;;;;;;;;;;;5141736;27;20040;-72
2022/03/05 12:51:57;;;;;;;;;;;;;;;;;;5141215;27;20355;-72
2022/03/05 12:54:23;;;;;;;;;;;;;;;;;;5141776;27;20273;-72
2022/03/05 12:56:51;;;;;;;;;;;;;;;;;;5141740;27;19907;-71
2022/03/05 12:59:17;;;;;;;;;;;;;;;;;;5141576;27;20392;-72
2022/03/05 13:01:44;;;;;;;;;;;;;;;;;;5141627;27;19907;-73
2022/03/05 13:04:09;;;;;;;;;;;;;;;;;;5140896;27;20294;-72
2022/03/05 13:06:35;;;;;;;;;;;;;;;;;;5141456;27;19927;-72
2022/03/05 13:09:01;;;;;;;;;;;;;;;;;;5123290;27;19961;-72
2022/03/05 13:11:27;;;;;;;;;;;;;;;;;;5123153;27;19929;-72
2022/03/05 13:13:52;;;;;;;;;;;;;;;;;;5140858;27;20318;-73
2022/03/05 13:16:18;;;;;;;;;;;;;;;;;;5141425;27;19912;-73
2022/03/05 13:18:44;;;;;;;;;;;;;;;;;;5142292;27;20198;-73
2022/03/05 13:21:10;;;;;;;;;;;;;;;;;;5123466;27;19915;-73
2022/03/05 13:23:36;;;;;;;;;;;;;;;;;;5141064;27;19911;-73
2022/03/05 13:26:02;;;;;;;;;;;;;;;;;;5141480;27;19907;-73
2022/03/05 13:28:27;;;;;;;;;;;;;;;;;;5141160;27;19914;-73
2022/03/05 13:30:53;;;;;;;;;;;;;;;;;;5122677;27;20243;-72
2022/03/05 13:33:19;;;;;;;;;;;;;;;;;;5141008;27;20264;-72
2022/03/05 13:35:45;;;;;;;;;;;;;;;;;;5141012;27;19915;-73
2022/03/05 13:38:10;;;;;;;;;;;;;;;;;;5122811;27;19907;-72
2022/03/05 13:40:36;;;;;;;;;;;;;;;;;;5140539;27;19951;-73
2022/03/05 13:43:02;;;;;;;;;;;;;;;;;;5122596;27;19907;-72
2022/03/05 13:45:27;;;;;;;;;;;;;;;;;;5140829;27;19951;-73
2022/03/05 13:47:53;;;;;;;;;;;;;;;;;;5140790;27;19908;-73
2022/03/05 13:50:19;;;;;;;;;;;;;;;;;;5121839;27;19912;-73
2022/03/05 13:52:44;;;;;;;;;;;;;;;;;;5122360;27;19997;-72
2022/03/05 13:55:10;;;;;;;;;;;;;;;;;;5122221;27;19908;-71
2022/03/05 13:57:37;;;;;;;;;;;;;;;;;;5140541;27;20320;-73
2022/03/05 14:00:03;;;;;;;;;;;;;;;;;;5139875;27;19916;-72
2022/03/05 14:02:28;;;;;;;;;;;;;;;;;;5140452;27;20186;-72
2022/03/05 14:04:54;;;;;;;;;;;;;;;;;;5139909;27;19911;-73
2022/03/05 14:07:20;;;;;;;;;;;;;;;;;;5140367;27;19920;-73
2022/03/05 14:09:46;;;;;;;;;;;;;;;;;;5122123;27;19914;-73
2022/03/05 14:12:11;;;;;;;;;;;;;;;;;;5140391;27;19942;-73
2022/03/05 14:14:37;;;;;;;;;;;;;;;;;;5104609;27;19907;-72
2022/03/05 14:17:03;;;;;;;;;;;;;;;;;;5139573;27;19907;-73
2022/03/05 14:19:29;;;;;;;;;;;;;;;;;;5139435;27;20017;-73
2022/03/05 14:21:55;;;;;;;;;;;;;;;;;;5121896;27;19950;-72
2022/03/05 14:24:20;;;;;;;;;;;;;;;;;;5121746;27;19908;-73
2022/03/05 14:26:46;;;;;;;;;;;;;;;;;;5122957;27;19914;-73
2022/03/05 14:29:12;;;;;;;;;;;;;;;;;;5140590;27;19907;-73
2022/03/05 14:31:37;;;;;;;;;;;;;;;;;;5139283;27;19988;-73
2022/03/05 14:34:03;;;;;;;;;;;;;;;;;;5139896;27;19984;-73
2022/03/05 14:36:29;;;;;;;;;;;;;;;;;;5139896;27;19918;-74
2022/03/05 14:38:54;;;;;;;;;;;;;;;;;;5104402;27;19942;-73
2022/03/05 14:41:20;;;;;;;;;;;;;;;;;;5139829;27;19908;-74
2022/03/05 14:43:46;;;;;;;;;;;;;;;;;;5121586;27;19939;-73
2022/03/05 14:46:14;;;;;;;;;;;;;;;;;;5139840;27;20327;-73
2022/03/05 14:48:40;;;;;;;;;;;;;;;;;;5139557;27;19907;-73
2022/03/05 14:51:06;;;;;;;;;;;;;;;;;;5139563;27;19933;-72
2022/03/05 14:53:31;;;;;;;;;;;;;;;;;;5138855;27;20328;-73
2022/03/05 14:55:57;;;;;;;;;;;;;;;;;;5121015;27;19914;-72
2022/03/05 14:58:23;;;;;;;;;;;;;;;;;;5138759;27;19907;-73
2022/03/05 15:00:48;;;;;;;;;;;;;;;;;;5138658;27;19972;-73
2022/03/05 15:03:14;;;;;;;;;;;;;;;;;;5139315;27;19914;-72
2022/03/05 15:05:40;;;;;;;;;;;;;;;;;;5139126;27;20298;-72
2022/03/05 15:08:05;;;;;;;;;;;;;;;;;;5120970;27;19907;-73
2022/03/05 15:10:31;;;;;;;;;;;;;;;;;;5121221;27;20254;-72
2022/03/05 15:12:57;;;;;;;;;;;;;;;;;;5120856;27;19908;-73
2022/03/05 15:15:23;;;;;;;;;;;;;;;;;;5138916;27;19907;-74
2022/03/05 15:17:49;;;;;;;;;;;;;;;;;;5120668;27;19941;-73
2022/03/05 15:20:15;;;;;;;;;;;;;;;;;;5138947;27;20007;-74
2022/03/05 15:22:40;;;;;;;;;;;;;;;;;;5139011;27;20289;-73
2022/03/05 15:25:06;;;;;;;;;;;;;;;;;;5138981;27;19908;-74
2022/03/05 15:27:33;;;;;;;;;;;;;;;;;;5138057;27;20224;-73
2022/03/05 15:29:59;;;;;;;;;;;;;;;;;;5120762;27;19912;-75
2022/03/05 15:32:27;;;;;;;;;;;;;;;;;;5138226;27;19907;-76
2022/03/05 15:34:53;;;;;;;;;;;;;;;;;;5138241;27;19914;-73
2022/03/05 15:37:18;;;;;;;;;;;;;;;;;;5120308;27;19911;-72
2022/03/05 15:39:44;;;;;;;;;;;;;;;;;;5119669;27;19915;-73
2022/03/05 15:42:10;;;;;;;;;;;;;;;;;;5103896;27;19911;-73
2022/03/05 15:44:35;;;;;;;;;;;;;;;;;;5120448;27;19911;-73
2022/03/05 15:47:01;;;;;;;;;;;;;;;;;;5138662;27;20002;-72
2022/03/05 15:49:27;;;;;;;;;;;;;;;;;;5138634;27;19915;-72
2022/03/05 15:51:52;;;;;;;;;;;;;;;;;;5138058;28;19954;-71
2022/03/05 15:54:18;;;;;;;;;;;;;;;;;;5138074;28;20309;-72
2022/03/05 15:56:44;;;;;;;;;;;;;;;;;;5138586;28;19953;-72
2022/03/05 15:59:13;;;;;;;;;;;;;;;;;;5138504;28;20216;-71
2022/03/05 16:01:39;;;;;;;;;;;;;;;;;;5138515;28;19911;-71
2022/03/05 16:04:05;;;;;;;;;;;;;;;;;;5138547;28;19908;-71
2022/03/05 16:06:31;;;;;;;;;;;;;;;;;;5138925;28;19922;-71
2022/03/05 16:08:57;;;;;;;;;;;;;;;;;;5103144;28;20036;-71
2022/03/05 16:11:23;;;;;;;;;;;;;;;;;;5138405;28;19946;-71
2022/03/05 16:13:48;;;;;;;;;;;;;;;;;;5138391;28;20335;-71
2022/03/05 16:16:14;;;;;;;;;;;;;;;;;;5138406;28;19907;-71
2022/03/05 16:18:41;;;;;;;;;;;;;;;;;;5137678;28;19908;-71
2022/03/05 16:21:07;;;;;;;;;;;;;;;;;;5138393;28;19915;-71
2022/03/05 16:23:35;;;;;;;;;;;;;;;;;;5138272;28;19912;-71
2022/03/05 16:26:00;;;;;;;;;;;;;;;;;;5138029;28;20220;-71
2022/03/05 16:28:26;;;;;;;;;;;;;;;;;;5137959;28;19990;-70
2022/03/05 16:30:54;;;;;;;;;;;;;;;;;;5138290;28;19907;-73
2022/03/05 16:33:20;;;;;;;;;;;;;;;;;;5102903;28;19907;-73
2022/03/05 16:35:46;;;;;;;;;;;;;;;;;;5138243;28;19933;-73